Terminal Aerodrome Forecast
Issued by NWS Upton, NY

Home | Current Version | Previous Version | Text Only | Print | Product List | Glossary On
Versions: 1 2 3 4 5 6 7 8 9 10 11 12 13 14 15 16 17 18 19 20 21 22 23 24 25 26 27 28 29
000
FTUS41 KOKX 022300
TAFISP
TAF
KISP 022340Z 0300/0324 20009KT P6SM FEW050 SCT250
     FM030300 23009KT P6SM BKN050 BKN150
     FM030700 27007KT P6SM SCT050 SCT150
     FM031000 32009KT P6SM SCT250=

USA.gov is the U.S. government's official web portal to all federal, state and local government web resources and services.